createdAt,value
2018-05-06T00:01:29.024Z,9.90
2018-05-06T00:03:57.248Z,9.90
2018-05-06T00:06:25.473Z,9.90
2018-05-06T00:08:54.448Z,10.00
2018-05-06T00:11:23.691Z,9.90
2018-05-06T00:13:51.900Z,9.90
2018-05-06T00:16:21.716Z,9.80
2018-05-06T00:18:49.994Z,9.80
2018-05-06T00:21:18.262Z,9.80
2018-05-06T00:23:46.524Z,9.90
2018-05-06T00:26:14.800Z,9.90
2018-05-06T00:28:43.002Z,9.90
2018-05-06T00:31:11.243Z,9.90
2018-05-06T00:33:39.490Z,9.90
2018-05-06T00:36:07.678Z,9.90
2018-05-06T00:38:36.637Z,9.90
2018-05-06T00:41:04.859Z,9.90
2018-05-06T00:43:33.077Z,9.90
2018-05-06T00:46:01.287Z,10.00
2018-05-06T00:48:30.300Z,10.10
2018-05-06T00:50:59.433Z,10.40
2018-05-06T00:53:27.777Z,10.30
2018-05-06T00:55:56.029Z,10.70
2018-05-06T00:58:24.259Z,10.80
2018-05-06T01:00:52.448Z,10.80
2018-05-06T01:03:21.441Z,10.70
2018-05-06T01:05:49.671Z,10.70
2018-05-06T01:08:17.917Z,10.70
2018-05-06T01:10:46.115Z,10.60
2018-05-06T01:13:14.302Z,10.60
2018-05-06T01:15:42.540Z,10.70
2018-05-06T01:18:10.785Z,10.80
2018-05-06T01:20:39.135Z,10.70
2018-05-06T01:23:07.806Z,10.80
2018-05-06T01:25:36.138Z,10.90
2018-05-06T01:28:04.382Z,10.90
2018-05-06T01:30:32.615Z,10.90
2018-05-06T01:33:01.640Z,10.70
2018-05-06T01:35:29.977Z,10.70
2018-05-06T01:37:58.521Z,10.70
2018-05-06T01:40:27.628Z,10.20
2018-05-06T01:42:57.816Z,10.20
2018-05-06T01:45:26.979Z,10.00
2018-05-06T01:47:56.108Z,9.90
2018-05-06T01:50:24.358Z,9.90
2018-05-06T01:52:52.562Z,9.80
2018-05-06T01:55:21.558Z,9.70
2018-05-06T01:57:50.565Z,9.70
2018-05-06T02:00:19.554Z,9.60
2018-05-06T02:02:47.756Z,9.60
2018-05-06T02:05:16.731Z,9.60
2018-05-06T02:07:45.876Z,9.50
2018-05-06T02:10:14.118Z,9.60
2018-05-06T02:12:43.150Z,9.60
2018-05-06T02:15:11.387Z,9.60
2018-05-06T02:17:40.422Z,9.60
2018-05-06T02:20:08.830Z,9.60
2018-05-06T02:22:37.884Z,9.70
2018-05-06T02:25:06.186Z,9.70
2018-05-06T02:27:34.436Z,9.80
2018-05-06T02:30:02.688Z,9.90
2018-05-06T02:32:31.770Z,10.10
2018-05-06T02:35:00.021Z,10.20
2018-05-06T02:37:28.258Z,10.20
2018-05-06T02:39:56.534Z,10.30
2018-05-06T02:42:24.781Z,10.20
2018-05-06T02:44:53.013Z,10.10
2018-05-06T02:47:21.402Z,10.00
2018-05-06T02:49:49.589Z,9.90
2018-05-06T02:52:17.824Z,9.80
2018-05-06T02:54:46.101Z,9.70
2018-05-06T02:57:14.347Z,9.50
2018-05-06T02:59:43.397Z,9.30
2018-05-06T03:02:11.595Z,9.30
2018-05-06T03:04:39.859Z,9.20
2018-05-06T03:07:08.076Z,9.20
2018-05-06T03:09:36.294Z,9.10
2018-05-06T03:12:04.666Z,9.00
2018-05-06T03:14:33.656Z,8.90
2018-05-06T03:17:02.679Z,8.90
2018-05-06T03:19:30.973Z,8.90
2018-05-06T03:21:59.161Z,8.80
2018-05-06T03:24:27.381Z,8.80
2018-05-06T03:26:56.356Z,8.70
2018-05-06T03:29:24.695Z,8.70
2018-05-06T03:31:53.085Z,8.60
2018-05-06T03:34:21.307Z,8.50
2018-05-06T03:36:50.321Z,8.40
2018-05-06T03:39:18.524Z,8.40
2018-05-06T03:41:46.719Z,8.40
2018-05-06T03:44:14.924Z,8.30
2018-05-06T03:46:43.171Z,8.30
2018-05-06T03:49:11.395Z,8.20
2018-05-06T03:51:40.378Z,8.20
2018-05-06T03:54:09.325Z,8.10
2018-05-06T03:59:49.321Z,8.10
2018-05-06T04:05:16.715Z,7.90
2018-05-06T04:07:45.722Z,7.80
2018-05-06T04:10:14.861Z,7.80
2018-05-06T04:12:46.151Z,7.80
2018-05-06T04:15:14.356Z,7.80
2018-05-06T04:17:42.586Z,7.70
2018-05-06T04:20:10.800Z,7.70
2018-05-06T04:22:39.236Z,7.70
2018-05-06T04:25:07.476Z,7.70
2018-05-06T04:27:35.702Z,7.80
2018-05-06T04:30:04.088Z,7.80
2018-05-06T04:32:32.361Z,7.80
2018-05-06T04:35:00.568Z,7.80
2018-05-06T04:37:28.810Z,7.90
2018-05-06T04:39:57.068Z,7.90
2018-05-06T04:42:25.314Z,7.90
2018-05-06T04:44:54.436Z,7.90
2018-05-06T04:47:22.639Z,7.90
2018-05-06T04:49:50.898Z,7.90
2018-05-06T04:52:19.103Z,7.90
2018-05-06T04:54:47.433Z,7.90
2018-05-06T04:57:15.656Z,8.00
2018-05-06T04:59:43.869Z,8.10
2018-05-06T05:02:12.170Z,8.20
2018-05-06T05:04:40.467Z,8.30
2018-05-06T05:07:08.829Z,8.40
2018-05-06T05:09:37.139Z,8.50
2018-05-06T05:12:05.512Z,8.70
2018-05-06T05:14:33.754Z,9.00
2018-05-06T05:17:02.041Z,9.30
2018-05-06T05:19:30.261Z,9.60
2018-05-06T05:21:58.469Z,9.80
2018-05-06T05:24:28.301Z,10.20
2018-05-06T05:26:56.563Z,10.20
2018-05-06T05:29:25.555Z,10.60
2018-05-06T05:31:53.763Z,10.50
2018-05-06T05:34:22.049Z,10.80
2018-05-06T05:36:50.206Z,11.00
2018-05-06T05:39:18.440Z,11.10
2018-05-06T05:41:47.423Z,11.50
2018-05-06T05:44:16.595Z,11.60
2018-05-06T05:46:44.875Z,11.60
2018-05-06T05:49:13.119Z,11.80
2018-05-06T05:51:41.418Z,12.00
2018-05-06T05:54:09.913Z,12.10
2018-05-06T05:56:38.169Z,12.30
2018-05-06T05:59:06.998Z,12.40
2018-05-06T06:01:35.400Z,12.50
2018-05-06T06:04:03.565Z,12.70
2018-05-06T06:06:32.725Z,13.00
2018-05-06T06:09:01.026Z,13.00
2018-05-06T06:11:29.903Z,13.20
2018-05-06T06:14:00.445Z,13.20
2018-05-06T06:16:28.673Z,13.50
2018-05-06T06:18:56.941Z,13.60
2018-05-06T06:21:26.088Z,14.00
2018-05-06T06:23:57.994Z,14.00
2018-05-06T06:26:26.431Z,14.10
2018-05-06T06:28:54.662Z,14.20
2018-05-06T06:31:23.762Z,14.40
2018-05-06T06:33:54.050Z,14.70
2018-05-06T06:36:22.336Z,14.70
2018-05-06T06:38:51.380Z,15.00
2018-05-06T06:41:19.596Z,14.90
2018-05-06T06:43:48.168Z,15.20
2018-05-06T06:46:16.390Z,15.30
2018-05-06T06:48:45.417Z,15.50
2018-05-06T06:51:13.728Z,15.50
2018-05-06T06:53:42.328Z,15.70
2018-05-06T06:56:10.698Z,15.80
2018-05-06T06:58:38.994Z,15.90
2018-05-06T07:01:08.018Z,16.00
2018-05-06T07:03:36.332Z,16.00
2018-05-06T07:06:04.544Z,16.20
2018-05-06T07:08:33.069Z,16.30
2018-05-06T07:11:01.593Z,16.50
2018-05-06T07:13:30.591Z,16.60
2018-05-06T07:15:58.895Z,16.60
2018-05-06T07:18:27.873Z,16.80
2018-05-06T07:20:56.250Z,16.80
2018-05-06T07:23:25.989Z,17.00
2018-05-06T07:25:54.187Z,17.00
2018-05-06T07:28:22.476Z,17.00
2018-05-06T07:30:50.784Z,17.10
2018-05-06T07:33:19.050Z,17.30
2018-05-06T07:35:48.946Z,17.50
2018-05-06T07:38:17.897Z,17.80
2018-05-06T07:40:46.282Z,17.70
2018-05-06T07:43:14.572Z,17.90
2018-05-06T07:45:43.603Z,18.10
2018-05-06T07:48:12.433Z,18.10
2018-05-06T07:50:40.746Z,18.40
2018-05-06T07:53:08.980Z,18.60
2018-05-06T07:55:37.240Z,18.80
2018-05-06T07:58:05.517Z,18.90
2018-05-06T08:00:33.712Z,18.90
2018-05-06T08:03:02.082Z,18.80
2018-05-06T08:05:30.304Z,19.10
2018-05-06T08:07:59.261Z,19.60
2018-05-06T08:10:27.642Z,19.60
2018-05-06T08:12:55.858Z,19.90
2018-05-06T08:15:24.851Z,19.80
2018-05-06T08:17:53.970Z,20.00
2018-05-06T08:20:30.024Z,20.00
2018-05-06T08:22:59.150Z,19.90
2018-05-06T08:25:27.549Z,19.90
2018-05-06T08:27:56.692Z,20.00
2018-05-06T08:30:25.728Z,20.40
2018-05-06T08:32:54.752Z,20.20
2018-05-06T08:35:24.048Z,20.10
2018-05-06T08:37:52.407Z,20.10
2018-05-06T08:40:20.642Z,20.20
2018-05-06T08:42:48.892Z,20.40
2018-05-06T08:45:18.066Z,20.70
2018-05-06T08:47:46.299Z,20.70
2018-05-06T08:50:14.605Z,20.70
2018-05-06T08:52:42.830Z,20.80
2018-05-06T08:55:12.534Z,21.00
2018-05-06T08:57:40.720Z,21.00
2018-05-06T09:00:09.739Z,21.10
2018-05-06T09:02:38.775Z,21.10
2018-05-06T09:05:07.861Z,21.20
2018-05-06T09:07:36.134Z,21.20
2018-05-06T09:10:04.431Z,21.20
2018-05-06T09:12:32.667Z,21.50
2018-05-06T09:15:01.082Z,21.60
2018-05-06T09:17:29.368Z,21.70
2018-05-06T09:19:57.714Z,22.00
2018-05-06T09:22:27.399Z,21.90
2018-05-06T09:24:59.418Z,22.00
2018-05-06T09:27:27.649Z,22.00
2018-05-06T09:29:57.713Z,22.20
2018-05-06T09:32:26.038Z,22.20
2018-05-06T09:34:54.740Z,22.10
2018-05-06T09:37:23.800Z,22.40
2018-05-06T09:39:52.226Z,22.80
2018-05-06T09:42:20.532Z,22.90
2018-05-06T09:44:49.039Z,23.00
2018-05-06T09:47:17.417Z,23.00
2018-05-06T09:49:45.659Z,22.80
2018-05-06T09:52:13.909Z,22.80
2018-05-06T09:54:42.252Z,22.80
2018-05-06T09:57:10.481Z,22.90
2018-05-06T09:59:38.752Z,23.20
2018-05-06T10:02:06.973Z,23.40
2018-05-06T10:04:35.204Z,23.20
2018-05-06T10:07:03.522Z,23.30
2018-05-06T10:09:31.756Z,23.40
2018-05-06T10:12:03.217Z,23.30
2018-05-06T10:14:31.465Z,23.60
2018-05-06T10:16:59.715Z,23.90
2018-05-06T10:19:35.362Z,23.90
2018-05-06T10:22:03.717Z,24.10
2018-05-06T10:24:32.042Z,24.30
2018-05-06T10:27:04.192Z,24.10
2018-05-06T10:29:32.483Z,24.30
2018-05-06T10:32:00.826Z,24.20
2018-05-06T10:34:29.833Z,24.30
2018-05-06T10:36:58.043Z,24.30
2018-05-06T10:39:26.647Z,24.50
2018-05-06T10:41:54.873Z,24.60
2018-05-06T10:44:23.285Z,24.60
2018-05-06T10:46:52.360Z,24.20
2018-05-06T10:49:21.873Z,24.10
2018-05-06T10:51:50.215Z,24.50
2018-05-06T10:54:18.630Z,24.60
2018-05-06T10:56:47.229Z,24.60
2018-05-06T10:59:15.430Z,24.70
2018-05-06T11:01:43.699Z,24.90
2018-05-06T11:04:13.191Z,25.40
2018-05-06T11:06:41.391Z,25.40
2018-05-06T11:09:10.537Z,25.60
2018-05-06T11:11:38.827Z,25.60
2018-05-06T11:14:07.027Z,25.10
2018-05-06T11:16:35.235Z,25.10
2018-05-06T11:19:03.482Z,25.30
2018-05-06T11:21:31.780Z,25.40
2018-05-06T11:24:00.946Z,25.60
2018-05-06T11:26:29.185Z,25.60
2018-05-06T11:28:57.376Z,25.70
2018-05-06T11:31:27.501Z,25.70
2018-05-06T11:33:55.758Z,25.70
2018-05-06T11:36:24.654Z,25.80
2018-05-06T11:38:52.873Z,25.90
2018-05-06T11:41:22.021Z,26.10
2018-05-06T11:43:51.048Z,26.50
2018-05-06T11:46:19.369Z,26.40
2018-05-06T11:48:48.505Z,26.30
2018-05-06T11:51:16.687Z,26.30
2018-05-06T11:53:45.681Z,26.10
2018-05-06T11:56:13.971Z,26.10
2018-05-06T11:58:43.749Z,26.20
2018-05-06T12:01:12.011Z,26.20
2018-05-06T12:03:40.990Z,26.60
2018-05-06T12:06:09.214Z,26.60
2018-05-06T12:08:37.432Z,26.70
2018-05-06T12:11:05.681Z,26.90
2018-05-06T12:13:33.889Z,26.80
2018-05-06T12:16:02.128Z,26.60
2018-05-06T12:18:30.359Z,26.50
2018-05-06T12:20:58.561Z,26.30
2018-05-06T12:23:26.832Z,26.40
2018-05-06T12:25:55.805Z,26.70
2018-05-06T12:28:24.008Z,26.70
2018-05-06T12:30:53.035Z,26.80
2018-05-06T12:33:21.246Z,26.80
2018-05-06T12:35:49.518Z,26.80
2018-05-06T12:38:17.765Z,26.80
2018-05-06T12:40:46.748Z,26.90
2018-05-06T12:43:15.633Z,27.10
2018-05-06T12:45:43.980Z,27.00
2018-05-06T12:48:12.268Z,27.10
2018-05-06T12:50:41.263Z,26.90
2018-05-06T12:53:09.467Z,26.90
2018-05-06T12:55:38.480Z,27.20
2018-05-06T12:58:06.711Z,27.20
2018-05-06T13:00:35.723Z,27.40
2018-05-06T13:03:04.867Z,28.00
2018-05-06T13:05:33.240Z,28.00
2018-05-06T13:08:01.493Z,28.00
2018-05-06T13:10:29.726Z,28.00
2018-05-06T13:12:57.954Z,28.40
2018-05-06T13:15:26.173Z,28.30
2018-05-06T13:17:54.405Z,28.20
2018-05-06T13:20:22.669Z,28.60
2018-05-06T13:22:51.681Z,28.60
2018-05-06T13:25:20.360Z,28.60
2018-05-06T13:27:48.578Z,28.50
2018-05-06T13:30:17.406Z,28.90
2018-05-06T13:32:46.381Z,29.50
2018-05-06T13:35:14.971Z,29.40
2018-05-06T13:37:43.252Z,29.20
2018-05-06T13:40:13.008Z,29.00
2018-05-06T13:42:41.262Z,29.00
2018-05-06T13:45:10.226Z,28.70
2018-05-06T13:47:39.272Z,28.90
2018-05-06T13:50:07.747Z,28.90
2018-05-06T13:52:36.055Z,28.90
2018-05-06T13:55:04.264Z,28.60
2018-05-06T13:57:32.539Z,28.60
2018-05-06T14:00:00.808Z,28.40
2018-05-06T14:02:30.800Z,28.60
2018-05-06T14:04:59.089Z,28.40
2018-05-06T14:07:27.386Z,28.20
2018-05-06T14:09:56.410Z,28.40
2018-05-06T14:12:24.637Z,28.30
2018-05-06T14:14:53.714Z,28.30
2018-05-06T14:17:21.944Z,28.30
2018-05-06T14:19:50.192Z,28.20
2018-05-06T14:22:18.411Z,28.60
2018-05-06T14:24:46.595Z,28.50
2018-05-06T14:27:14.887Z,28.50
2018-05-06T14:29:43.177Z,28.50
2018-05-06T14:32:17.369Z,28.60
2018-05-06T14:34:46.519Z,28.60
2018-05-06T14:37:14.769Z,28.60
2018-05-06T14:39:43.700Z,28.90
2018-05-06T14:42:12.708Z,28.90
2018-05-06T14:44:40.943Z,28.70
2018-05-06T14:47:21.255Z,28.70
2018-05-06T14:49:50.436Z,28.60
2018-05-06T14:52:18.676Z,28.60
2018-05-06T14:54:46.968Z,28.80
2018-05-06T14:57:15.167Z,28.80
2018-05-06T14:59:43.355Z,28.90
2018-05-06T15:02:11.712Z,28.90
2018-05-06T15:04:40.124Z,28.90
2018-05-06T15:07:09.312Z,28.80
2018-05-06T15:09:37.549Z,28.80
2018-05-06T15:12:05.757Z,28.90
2018-05-06T15:14:36.286Z,29.00
2018-05-06T15:17:04.552Z,28.90
2018-05-06T15:19:33.631Z,28.40
2018-05-06T15:22:01.939Z,28.30
2018-05-06T15:24:30.224Z,28.40
2018-05-06T15:26:58.491Z,28.70
2018-05-06T15:29:26.691Z,28.60
2018-05-06T15:31:54.922Z,28.60
2018-05-06T15:34:23.133Z,28.70
2018-05-06T15:36:51.326Z,28.70
2018-05-06T15:39:19.586Z,28.70
2018-05-06T15:41:48.386Z,28.70
2018-05-06T15:44:16.978Z,28.70
2018-05-06T15:46:45.188Z,28.70
2018-05-06T15:49:13.511Z,28.70
2018-05-06T15:51:41.756Z,28.90
2018-05-06T15:54:11.339Z,28.80
2018-05-06T15:56:40.468Z,28.40
2018-05-06T15:59:08.687Z,28.40
2018-05-06T16:01:36.957Z,28.20
2018-05-06T16:04:15.896Z,28.10
2018-05-06T16:06:44.148Z,28.50
2018-05-06T16:09:12.422Z,28.70
2018-05-06T16:11:40.654Z,28.70
2018-05-06T16:14:08.862Z,28.90
2018-05-06T16:16:37.832Z,28.80
2018-05-06T16:19:06.854Z,28.40
2018-05-06T16:21:35.126Z,28.40
2018-05-06T16:24:04.077Z,28.20
2018-05-06T16:26:33.260Z,28.10
2018-05-06T16:29:01.515Z,28.10
2018-05-06T16:31:29.809Z,28.20
2018-05-06T16:33:58.255Z,28.30
2018-05-06T16:36:26.532Z,28.40
2018-05-06T16:38:54.797Z,28.40
2018-05-06T16:41:24.075Z,28.20
2018-05-06T16:43:52.342Z,28.20
2018-05-06T16:46:20.716Z,28.30
2018-05-06T16:48:48.954Z,27.90
2018-05-06T16:51:17.180Z,27.60
2018-05-06T16:53:45.378Z,27.40
2018-05-06T16:56:13.616Z,27.10
2018-05-06T16:58:42.210Z,26.90
2018-05-06T17:01:12.023Z,26.50
2018-05-06T17:03:40.351Z,26.50
2018-05-06T17:06:09.521Z,26.30
2018-05-06T17:08:37.817Z,26.20
2018-05-06T17:11:06.808Z,26.10
2018-05-06T17:13:35.020Z,26.10
2018-05-06T17:16:03.248Z,25.90
2018-05-06T17:18:31.509Z,25.80
2018-05-06T17:20:59.883Z,25.80
2018-05-06T17:23:28.282Z,25.70
2018-05-06T17:25:57.314Z,25.60
2018-05-06T17:28:26.389Z,25.50
2018-05-06T17:30:54.734Z,25.50
2018-05-06T17:33:22.956Z,25.40
2018-05-06T17:35:52.047Z,25.20
2018-05-06T17:38:20.314Z,25.20
2018-05-06T17:40:48.504Z,25.20
2018-05-06T17:43:17.524Z,25.10
2018-05-06T17:45:46.558Z,25.10
2018-05-06T17:48:14.753Z,25.10
2018-05-06T17:50:43.703Z,25.10
2018-05-06T17:53:11.918Z,25.00
2018-05-06T17:55:40.212Z,24.90
2018-05-06T17:58:09.286Z,24.80
2018-05-06T18:00:37.561Z,24.80
2018-05-06T18:03:05.807Z,24.70
2018-05-06T18:05:36.678Z,24.60
2018-05-06T18:08:04.945Z,24.60
2018-05-06T18:10:33.194Z,24.40
2018-05-06T18:13:02.187Z,24.20
2018-05-06T18:15:30.407Z,24.10
2018-05-06T18:17:59.429Z,24.10
2018-05-06T18:20:28.431Z,23.80
2018-05-06T18:22:57.401Z,23.70
2018-05-06T18:25:25.617Z,23.70
2018-05-06T18:27:53.916Z,23.70
2018-05-06T18:30:25.928Z,23.60
2018-05-06T18:35:41.613Z,23.50
2018-05-06T18:38:15.360Z,23.40
2018-05-06T18:40:49.075Z,23.30
2018-05-06T18:43:22.595Z,23.20
2018-05-06T18:45:51.533Z,23.00
2018-05-06T18:48:19.836Z,22.80
2018-05-06T18:50:48.033Z,22.70
2018-05-06T18:53:16.232Z,22.50
2018-05-06T18:55:44.474Z,22.20
2018-05-06T18:58:12.812Z,22.10
2018-05-06T19:00:41.116Z,21.90
2018-05-06T19:03:09.403Z,21.80
2018-05-06T19:05:38.471Z,21.60
2018-05-06T19:08:06.816Z,21.50
2018-05-06T19:10:36.152Z,21.20
2018-05-06T19:13:04.333Z,21.20
2018-05-06T19:15:32.740Z,21.00
2018-05-06T19:18:04.015Z,21.00
2018-05-06T19:20:33.059Z,20.60
2018-05-06T19:23:01.293Z,20.60
2018-05-06T19:25:30.308Z,20.20
2018-05-06T19:27:59.356Z,20.10
2018-05-06T19:30:27.614Z,20.10
2018-05-06T19:32:55.867Z,19.90
2018-05-06T19:35:24.687Z,19.70
2018-05-06T19:37:52.928Z,19.50
2018-05-06T19:40:21.174Z,19.30
2018-05-06T19:42:50.162Z,18.90
2018-05-06T19:45:18.497Z,18.90
2018-05-06T19:47:47.214Z,18.80
2018-05-06T19:50:16.256Z,18.40
2018-05-06T19:52:45.582Z,18.40
2018-05-06T19:55:13.929Z,18.30
2018-05-06T19:57:42.896Z,18.00
2018-05-06T20:00:13.084Z,17.90
2018-05-06T20:02:41.362Z,17.90
2018-05-06T20:05:09.610Z,17.80
2018-05-06T20:07:37.840Z,17.70
2018-05-06T20:10:06.912Z,17.50
2018-05-06T20:12:35.097Z,17.40
2018-05-06T20:15:03.339Z,17.40
2018-05-06T20:17:31.588Z,17.20
2018-05-06T20:20:00.620Z,17.10
2018-05-06T20:22:28.965Z,17.10
2018-05-06T20:24:57.296Z,17.00
2018-05-06T20:27:26.561Z,16.90
2018-05-06T20:29:54.797Z,16.90
2018-05-06T20:32:23.056Z,16.80
2018-05-06T20:34:51.266Z,16.80
2018-05-06T20:37:20.973Z,16.60
2018-05-06T20:39:50.013Z,16.60
2018-05-06T20:42:18.298Z,16.60
2018-05-06T20:44:46.626Z,16.60
2018-05-06T20:47:14.844Z,16.60
2018-05-06T20:49:43.675Z,16.50
2018-05-06T20:52:15.318Z,16.50
2018-05-06T20:54:44.972Z,16.40
2018-05-06T20:57:13.387Z,16.40
2018-05-06T20:59:41.646Z,16.30
2018-05-06T21:02:11.347Z,16.10
2018-05-06T21:04:39.568Z,16.10
2018-05-06T21:07:07.767Z,16.10
2018-05-06T21:09:36.017Z,15.90
2018-05-06T21:12:04.230Z,15.80
2018-05-06T21:14:33.960Z,15.60
2018-05-06T21:17:03.640Z,15.60
2018-05-06T21:19:32.896Z,15.60
2018-05-06T21:22:01.910Z,15.50
2018-05-06T21:24:30.111Z,15.50
2018-05-06T21:26:58.402Z,15.40
2018-05-06T21:29:26.588Z,15.40
2018-05-06T21:31:54.969Z,15.30
2018-05-06T21:34:28.936Z,15.20
2018-05-06T21:36:57.202Z,15.10
2018-05-06T21:39:26.219Z,15.00
2018-05-06T21:41:54.507Z,15.00
2018-05-06T21:44:22.741Z,14.90
2018-05-06T21:46:51.066Z,14.90
2018-05-06T21:49:20.165Z,14.80
2018-05-06T21:51:48.547Z,14.80
2018-05-06T21:54:16.747Z,14.70
2018-05-06T21:56:45.129Z,14.70
2018-05-06T21:59:13.514Z,14.50
2018-05-06T22:01:43.485Z,14.30
2018-05-06T22:04:12.013Z,14.30
2018-05-06T22:06:41.280Z,14.20
2018-05-06T22:09:09.576Z,14.20
2018-05-06T22:11:37.790Z,14.00
2018-05-06T22:14:06.813Z,13.90
2018-05-06T22:16:35.117Z,13.80
2018-05-06T22:19:03.407Z,13.70
2018-05-06T22:21:31.671Z,13.60
2018-05-06T22:24:00.200Z,13.50
2018-05-06T22:26:28.439Z,13.50
2018-05-06T22:28:57.560Z,13.50
2018-05-06T22:31:26.576Z,13.40
2018-05-06T22:33:54.844Z,13.40
2018-05-06T22:36:23.893Z,13.40
2018-05-06T22:38:53.170Z,13.40
2018-05-06T22:41:22.281Z,13.40
2018-05-06T22:43:50.682Z,13.40
2018-05-06T22:46:18.900Z,13.30
2018-05-06T22:48:47.124Z,13.30
2018-05-06T22:51:15.973Z,13.30
2018-05-06T22:53:44.180Z,13.30
2018-05-06T22:56:13.066Z,13.30
2018-05-06T22:58:42.116Z,13.10
2018-05-06T23:01:11.169Z,13.00
2018-05-06T23:03:39.476Z,13.00
2018-05-06T23:06:07.710Z,12.90
2018-05-06T23:08:36.698Z,12.80
2018-05-06T23:11:05.789Z,12.80
2018-05-06T23:13:33.979Z,12.80
2018-05-06T23:16:05.751Z,12.70
2018-05-06T23:18:33.981Z,12.70
2018-05-06T23:21:02.356Z,12.60
2018-05-06T23:23:32.178Z,12.50
2018-05-06T23:26:01.346Z,12.40
2018-05-06T23:28:29.935Z,12.40
2018-05-06T23:30:58.125Z,12.40
2018-05-06T23:33:26.396Z,12.30
2018-05-06T23:35:54.623Z,12.30
2018-05-06T23:38:23.585Z,12.20
2018-05-06T23:40:51.830Z,12.10
2018-05-06T23:43:20.164Z,12.10
2018-05-06T23:45:49.143Z,12.10
2018-05-06T23:48:17.353Z,12.00
2018-05-06T23:50:45.557Z,12.00
2018-05-06T23:53:13.763Z,12.00
2018-05-06T23:55:42.113Z,12.00
2018-05-06T23:58:10.405Z,11.90
